Time;durP1;ratioP1;P1;durP2;ratioP2;P2;SDS_P1;SDS_P2;PMS_P1;PMS_P2;Temp;Humidity;BMP_temperature;BMP_pressure;BME280_temperature;BME280_humidity;BME280_pressure;Samples;Min_cycle;Max_cycle;Signal;HPM_P1;HPM_P2
2023/01/28 00:00:12;;;;;;;7.57;4.75;;;4.50;76.90;;;;;;6184418;23;20211;-83
2023/01/28 00:02:40;;;;;;;6.70;3.75;;;4.50;77.10;;;;;;6215672;23;20183;-84
2023/01/28 00:05:09;;;;;;;6.53;4.53;;;4.50;77.10;;;;;;6179534;23;21107;-83
2023/01/28 00:07:38;;;;;;;7.10;4.40;;;4.60;77.20;;;;;;6179641;23;20283;-83
2023/01/28 00:10:07;;;;;;;18.58;10.75;;;4.60;77.30;;;;;;6178899;23;20434;-84
2023/01/28 00:12:35;;;;;;;10.52;6.20;;;4.70;77.20;;;;;;6178823;23;20180;-84
2023/01/28 00:15:06;;;;;;;8.10;5.05;;;4.70;77.30;;;;;;6180305;23;20172;-83
2023/01/28 00:17:35;;;;;;;8.02;5.30;;;4.70;77.20;;;;;;6179053;23;20183;-84
2023/01/28 00:20:03;;;;;;;8.13;4.53;;;4.70;77.20;;;;;;6215704;23;20270;-83
2023/01/28 00:22:32;;;;;;;7.90;5.18;;;4.70;77.20;;;;;;6178710;23;20184;-83
2023/01/28 00:25:02;;;;;;;7.50;4.55;;;4.70;77.10;;;;;;6179213;23;20196;-84
2023/01/28 00:27:30;;;;;;;10.38;5.65;;;4.60;77.30;;;;;;6178910;23;20516;-84
2023/01/28 00:29:58;;;;;;;7.72;4.22;;;4.60;77.30;;;;;;6215951;23;20195;-83
2023/01/28 00:32:26;;;;;;;6.38;3.97;;;4.50;77.30;;;;;;6179037;23;20504;-83
2023/01/28 00:34:54;;;;;;;10.25;5.60;;;4.50;77.40;;;;;;6215970;23;20255;-83
2023/01/28 00:37:22;;;;;;;11.63;6.47;;;4.50;77.40;;;;;;6178561;23;20172;-83
2023/01/28 00:39:50;;;;;;;12.60;8.15;;;4.50;77.50;;;;;;6179174;23;20910;-84
2023/01/28 00:42:19;;;;;;;12.75;7.75;;;4.50;77.60;;;;;;6178558;23;20180;-83
2023/01/28 00:44:47;;;;;;;10.18;5.32;;;4.50;77.60;;;;;;6179956;23;20231;-84
2023/01/28 00:47:15;;;;;;;6.35;3.92;;;4.50;77.70;;;;;;6215827;23;20882;-84
2023/01/28 00:49:45;;;;;;;8.63;4.65;;;4.50;77.70;;;;;;6178787;23;20200;-83
2023/01/28 00:52:13;;;;;;;8.13;4.40;;;4.50;77.60;;;;;;6179143;23;20180;-83
2023/01/28 00:54:41;;;;;;;10.13;5.55;;;4.50;77.70;;;;;;6179593;23;20185;-83
2023/01/28 00:57:09;;;;;;;9.35;4.95;;;4.50;77.70;;;;;;6181518;23;20180;-83
2023/01/28 00:59:38;;;;;;;22.98;11.60;;;4.50;77.70;;;;;;6218097;23;20203;-84
2023/01/28 01:02:11;;;;;;;11.10;5.97;;;4.50;77.70;;;;;;6178683;23;20275;-83
2023/01/28 01:04:53;;;;;;;9.75;5.50;;;4.50;77.70;;;;;;6179180;23;20218;-83
2023/01/28 01:07:30;;;;;;;11.60;5.82;;;4.50;77.70;;;;;;6179327;23;20298;-83
2023/01/28 01:09:59;;;;;;;7.63;4.15;;;4.40;77.60;;;;;;6215211;23;20556;-83
2023/01/28 01:12:27;;;;;;;11.98;5.57;;;4.40;77.60;;;;;;6178007;23;20180;-83
2023/01/28 01:14:57;;;;;;;11.52;6.05;;;4.30;77.70;;;;;;6180529;23;20177;-83
2023/01/28 01:17:25;;;;;;;7.20;3.55;;;4.20;77.80;;;;;;6180248;23;20801;-83
2023/01/28 01:19:53;;;;;;;8.57;4.55;;;4.20;77.70;;;;;;6217213;23;20741;-83
2023/01/28 01:22:21;;;;;;;20.35;9.10;;;4.20;78.00;;;;;;6217459;23;20180;-83
2023/01/28 01:24:50;;;;;;;8.45;4.50;;;4.20;78.00;;;;;;6180718;23;20216;-83
2023/01/28 01:27:18;;;;;;;12.82;5.97;;;4.20;78.10;;;;;;6180682;23;20181;-83
2023/01/28 01:29:46;;;;;;;11.35;6.07;;;4.20;78.10;;;;;;6179566;23;20250;-83
2023/01/28 01:32:15;;;;;;;6.65;3.30;;;4.20;78.10;;;;;;6179843;23;20188;-83
2023/01/28 01:34:43;;;;;;;13.48;7.20;;;4.20;78.00;;;;;;6180185;23;20612;-83
2023/01/28 01:37:11;;;;;;;9.55;5.00;;;4.20;78.00;;;;;;6180465;23;20542;-83
2023/01/28 01:39:39;;;;;;;8.60;5.45;;;4.20;78.10;;;;;;6180691;23;20196;-83
2023/01/28 01:42:10;;;;;;;10.23;5.40;;;4.20;78.10;;;;;;6179741;23;20263;-82
2023/01/28 01:44:57;;;;;;;9.32;5.57;;;4.20;78.10;;;;;;6217839;23;20443;-83
2023/01/28 01:47:35;;;;;;;19.75;8.82;;;4.20;78.10;;;;;;6217373;23;20171;-84
2023/01/28 01:50:08;;;;;;;16.02;8.50;;;4.20;78.40;;;;;;6179795;23;20204;-85
2023/01/28 01:52:36;;;;;;;20.48;8.57;;;4.30;78.40;;;;;;6216432;23;20758;-83
2023/01/28 01:55:11;;;;;;;15.77;6.85;;;4.30;78.40;;;;;;6180406;23;20164;-83
2023/01/28 01:57:41;;;;;;;15.85;8.30;;;4.40;78.40;;;;;;6180758;23;20199;-83
2023/01/28 02:00:10;;;;;;;9.90;5.97;;;4.40;78.30;;;;;;6181134;23;20200;-83
2023/01/28 02:02:45;;;;;;;12.82;6.50;;;4.40;78.20;;;;;;6216289;23;20156;-83
2023/01/28 02:05:16;;;;;;;13.93;7.47;;;4.40;78.30;;;;;;6180058;23;20194;-83
2023/01/28 02:07:46;;;;;;;18.35;9.05;;;4.40;78.20;;;;;;6179221;23;20605;-83
2023/01/28 02:10:15;;;;;;;10.93;6.85;;;4.40;78.30;;;;;;6180031;23;20224;-83
2023/01/28 02:12:46;;;;;;;12.98;6.88;;;4.40;78.30;;;;;;6179097;23;20180;-83
2023/01/28 02:15:16;;;;;;;12.05;7.00;;;4.40;78.30;;;;;;6179892;23;20615;-83
2023/01/28 02:17:47;;;;;;;7.55;4.00;;;4.40;78.30;;;;;;6178602;23;20176;-83
2023/01/28 02:20:21;;;;;;;7.65;4.53;;;4.40;78.10;;;;;;6216151;23;20196;-83
2023/01/28 02:23:32;;;;;;;6.72;3.70;;;4.40;78.20;;;;;;6179351;23;20277;-83
2023/01/28 02:26:40;;;;;;;7.05;4.40;;;4.40;78.40;;;;;;6179046;23;20933;-83
2023/01/28 02:29:17;;;;;;;10.57;5.60;;;4.30;78.40;;;;;;6179966;23;20195;-83
2023/01/28 02:31:52;;;;;;;10.85;6.43;;;4.30;78.40;;;;;;6216315;23;20552;-83
2023/01/28 02:34:31;;;;;;;11.13;5.72;;;4.30;78.50;;;;;;6179514;23;20188;-83
2023/01/28 02:37:03;;;;;;;7.65;5.15;;;4.30;78.40;;;;;;6179130;23;20202;-83
2023/01/28 02:39:35;;;;;;;11.98;5.43;;;4.20;78.50;;;;;;6181321;23;20200;-84
2023/01/28 02:42:07;;;;;;;14.60;7.90;;;4.20;78.50;;;;;;6219616;23;20171;-83
2023/01/28 02:44:36;;;;;;;8.30;5.28;;;4.20;78.50;;;;;;6181941;23;20731;-83
2023/01/28 02:49:58;;;;;;;7.72;4.60;;;4.20;78.50;;;;;;6177859;23;20200;-82
2023/01/28 02:55:39;;;;;;;7.00;4.30;;;4.20;78.70;;;;;;6217486;23;20166;-83
2023/01/28 02:58:14;;;;;;;6.70;3.90;;;4.20;78.60;;;;;;6179050;23;20174;-82
2023/01/28 03:00:50;;;;;;;6.10;4.10;;;4.20;78.50;;;;;;6217125;23;20193;-83
2023/01/28 03:03:27;;;;;;;8.50;5.00;;;4.10;78.60;;;;;;6177955;23;20187;-84
2023/01/28 03:06:04;;;;;;;7.47;4.65;;;4.10;78.60;;;;;;6216932;23;20210;-83
2023/01/28 03:36:49;;;;;;;5.25;3.45;;;4.10;78.80;;;;;;6178091;23;20477;-83
2023/01/28 03:39:40;;;;;;;10.10;4.18;;;4.20;79.00;;;;;;6178702;23;20203;-83
2023/01/28 03:42:13;;;;;;;7.05;4.20;;;4.10;78.70;;;;;;6177574;23;20181;-82
2023/01/28 03:44:56;;;;;;;5.30;3.80;;;4.20;78.70;;;;;;6178664;23;20188;-82
2023/01/28 03:47:26;;;;;;;6.43;3.58;;;4.10;78.70;;;;;;6178084;23;20165;-83
2023/01/28 03:49:58;;;;;;;5.90;4.03;;;4.10;78.70;;;;;;6214838;23;21133;-83
2023/01/28 03:52:30;;;;;;;5.90;3.50;;;4.10;78.70;;;;;;6178628;23;20723;-84
2023/01/28 03:55:14;;;;;;;6.00;3.67;;;4.10;78.80;;;;;;6178932;23;20172;-84
2023/01/28 03:57:43;;;;;;;6.47;3.50;;;4.10;78.90;;;;;;6178562;23;20175;-84
2023/01/28 04:00:16;;;;;;;7.93;4.30;;;4.10;78.90;;;;;;6179392;23;20200;-84
2023/01/28 04:02:45;;;;;;;6.40;3.50;;;4.10;78.90;;;;;;6177772;23;21063;-84
2023/01/28 04:05:19;;;;;;;5.82;3.55;;;4.10;78.90;;;;;;6179111;23;20193;-83
2023/01/28 04:07:50;;;;;;;7.47;4.10;;;4.00;78.80;;;;;;6178920;23;20176;-84
2023/01/28 04:10:30;;;;;;;5.45;3.30;;;4.00;78.80;;;;;;6179744;23;20210;-84
2023/01/28 04:13:05;;;;;;;6.95;4.32;;;4.00;78.80;;;;;;6178333;23;20175;-86
2023/01/28 04:15:35;;;;;;;6.55;3.75;;;4.00;78.90;;;;;;6179529;23;20176;-83
2023/01/28 04:18:03;;;;;;;5.55;3.50;;;4.00;78.90;;;;;;6179223;23;20593;-82
2023/01/28 04:20:33;;;;;;;7.40;4.30;;;4.00;78.90;;;;;;6179077;23;20208;-82
2023/01/28 04:23:01;;;;;;;6.28;3.85;;;4.00;78.90;;;;;;6178781;23;20204;-82
2023/01/28 04:25:30;;;;;;;6.10;3.40;;;4.00;78.90;;;;;;6179981;23;20192;-83
2023/01/28 04:27:58;;;;;;;9.32;4.22;;;4.00;78.90;;;;;;6180364;23;20242;-83
2023/01/28 04:30:29;;;;;;;4.50;2.70;;;3.90;78.90;;;;;;6180517;23;20513;-83
2023/01/28 04:33:06;;;;;;;6.63;4.05;;;4.00;79.00;;;;;;6180449;23;20179;-82
2023/01/28 04:35:54;;;;;;;6.05;3.30;;;4.00;79.00;;;;;;6208089;23;20175;-82
2023/01/28 04:38:42;;;;;;;7.32;4.28;;;3.90;78.90;;;;;;6207950;23;20181;-83
2023/01/28 04:41:30;;;;;;;5.70;3.90;;;3.90;78.90;;;;;;6182414;23;20215;-83
2023/01/28 04:44:04;;;;;;;6.93;4.30;;;3.80;78.90;;;;;;6184511;23;20177;-83
2023/01/28 04:46:56;;;;;;;8.52;4.25;;;3.80;78.90;;;;;;6222736;23;20209;-84
2023/01/28 04:49:36;;;;;;;6.05;3.70;;;3.80;78.90;;;;;;6185723;23;20199;-85
2023/01/28 04:52:14;;;;;;;6.78;4.07;;;3.80;79.00;;;;;;6184777;23;20164;-82
2023/01/28 04:54:55;;;;;;;8.20;4.53;;;3.80;79.00;;;;;;6182736;23;20179;-84
2023/01/28 04:57:24;;;;;;;5.53;3.75;;;3.80;79.20;;;;;;6183419;23;20183;-82
2023/01/28 04:59:52;;;;;;;6.25;4.25;;;3.80;79.20;;;;;;6182394;23;20280;-82
2023/01/28 05:02:20;;;;;;;7.53;4.47;;;3.80;79.20;;;;;;6180823;23;20815;-82
2023/01/28 05:04:48;;;;;;;6.95;4.15;;;3.90;79.20;;;;;;6180847;23;20242;-82
2023/01/28 05:07:42;;;;;;;9.15;4.78;;;3.90;79.00;;;;;;6181247;23;20172;-85
2023/01/28 05:10:10;;;;;;;7.80;4.93;;;3.90;79.20;;;;;;6180591;23;20204;-84
2023/01/28 05:12:38;;;;;;;13.15;7.15;;;3.90;79.20;;;;;;6178961;23;20308;-83
2023/01/28 05:15:09;;;;;;;11.35;6.22;;;3.90;79.20;;;;;;6181193;23;20180;-84
2023/01/28 05:17:37;;;;;;;11.65;6.20;;;3.90;79.00;;;;;;6180379;23;20290;-85
2023/01/28 05:20:06;;;;;;;14.73;7.10;;;3.90;79.00;;;;;;6181379;23;20884;-83
2023/01/28 05:22:34;;;;;;;16.77;8.10;;;3.80;79.00;;;;;;6180624;23;20180;-82
2023/01/28 05:25:17;;;;;;;11.55;6.88;;;3.80;79.00;;;;;;6182184;23;20348;-83
2023/01/28 05:27:50;;;;;;;7.03;4.28;;;3.80;79.00;;;;;;6181643;23;20495;-84
2023/01/28 05:30:19;;;;;;;8.85;5.05;;;3.80;79.00;;;;;;6186020;23;20330;-83
2023/01/28 05:32:47;;;;;;;7.20;5.13;;;3.80;79.20;;;;;;6179475;23;20667;-84
2023/01/28 05:35:19;;;;;;;8.30;4.80;;;3.80;79.00;;;;;;6179248;23;20872;-84
2023/01/28 05:37:47;;;;;;;11.05;5.80;;;3.80;79.00;;;;;;6178880;23;20957;-85
2023/01/28 05:40:18;;;;;;;11.50;7.00;;;3.90;79.20;;;;;;6178927;23;20200;-85
2023/01/28 05:42:46;;;;;;;13.05;6.75;;;3.90;79.00;;;;;;6177930;23;20706;-84
2023/01/28 05:45:44;;;;;;;12.68;7.20;;;3.90;79.20;;;;;;6187177;23;20926;-83
2023/01/28 05:48:17;;;;;;;11.38;6.40;;;3.90;78.90;;;;;;6179690;23;20919;-84
2023/01/28 05:51:04;;;;;;;16.05;8.90;;;3.90;78.90;;;;;;6215673;23;20202;-84
2023/01/28 05:53:35;;;;;;;11.85;7.45;;;3.90;78.90;;;;;;6178559;23;20379;-83
2023/01/28 05:56:05;;;;;;;13.32;6.63;;;3.80;79.00;;;;;;6179086;23;20555;-84
2023/01/28 05:58:34;;;;;;;37.60;24.40;;;3.80;79.00;;;;;;6178908;23;20176;-84
2023/01/28 06:01:03;;;;;;;16.33;9.73;;;3.90;79.20;;;;;;6178913;23;20192;-84
2023/01/28 06:03:41;;;;;;;11.93;7.85;;;3.90;79.20;;;;;;6178930;23;20191;-84
2023/01/28 06:06:09;;;;;;;11.32;7.40;;;3.90;79.00;;;;;;6216421;23;20196;-84
2023/01/28 06:08:38;;;;;;;9.93;6.15;;;3.90;79.00;;;;;;6179331;23;20184;-84
2023/01/28 06:11:07;;;;;;;10.10;5.93;;;3.90;78.90;;;;;;6179567;23;20671;-84
2023/01/28 06:13:36;;;;;;;9.93;6.80;;;3.90;78.90;;;;;;6215828;23;20196;-84
2023/01/28 06:16:30;;;;;;;11.32;6.32;;;3.90;78.90;;;;;;6179393;23;20175;-83
2023/01/28 06:19:30;;;;;;;11.70;6.43;;;4.00;79.00;;;;;;6149735;23;20738;-84
2023/01/28 06:21:58;;;;;;;9.90;5.68;;;4.00;79.00;;;;;;6178433;23;20192;-85
2023/01/28 06:24:26;;;;;;;12.40;7.68;;;4.00;78.90;;;;;;6179655;23;20223;-84
2023/01/28 06:26:56;;;;;;;15.82;9.27;;;4.00;78.90;;;;;;6179526;23;20271;-84
2023/01/28 06:29:24;;;;;;;11.23;7.22;;;4.00;78.80;;;;;;6180416;23;20223;-84
2023/01/28 06:31:52;;;;;;;13.40;7.88;;;4.00;78.90;;;;;;6215954;23;20588;-84
2023/01/28 06:34:20;;;;;;;11.98;7.00;;;4.00;78.70;;;;;;6216483;23;20230;-84
2023/01/28 06:36:49;;;;;;;9.25;6.75;;;4.00;78.60;;;;;;6215709;23;20164;-84
2023/01/28 06:39:17;;;;;;;8.52;5.50;;;3.90;78.70;;;;;;6180162;23;20230;-85
2023/01/28 06:41:45;;;;;;;8.23;6.18;;;3.90;78.80;;;;;;6178795;23;20183;-85
2023/01/28 06:44:14;;;;;;;17.98;14.85;;;3.90;78.60;;;;;;6180159;23;20176;-83
2023/01/28 06:46:42;;;;;;;10.02;7.07;;;3.90;78.60;;;;;;6215671;23;20180;-83
2023/01/28 06:49:11;;;;;;;11.32;7.95;;;3.90;78.70;;;;;;6180168;23;20741;-86
2023/01/28 06:51:39;;;;;;;13.98;8.93;;;3.90;78.70;;;;;;6179015;23;20187;-83
2023/01/28 06:54:07;;;;;;;9.57;5.95;;;3.80;78.70;;;;;;6179542;23;20180;-82
2023/01/28 06:56:35;;;;;;;11.48;7.63;;;3.80;78.60;;;;;;6180295;23;20173;-83
2023/01/28 06:59:04;;;;;;;8.63;5.88;;;3.80;78.50;;;;;;6179970;23;20176;-82
2023/01/28 07:01:36;;;;;;;18.00;10.80;;;3.70;78.60;;;;;;6179673;23;20196;-84
2023/01/28 07:04:05;;;;;;;9.75;6.00;;;3.70;78.80;;;;;;6217136;23;20912;-84
2023/01/28 07:06:33;;;;;;;9.05;6.50;;;3.70;78.80;;;;;;6215911;23;20192;-83
2023/01/28 07:09:01;;;;;;;8.07;6.07;;;3.70;78.90;;;;;;6217121;23;20176;-84
2023/01/28 07:11:29;;;;;;;8.70;6.43;;;3.70;78.90;;;;;;6215861;23;20561;-83
2023/01/28 07:13:57;;;;;;;9.85;6.40;;;3.70;78.80;;;;;;6179463;23;20192;-83
2023/01/28 07:16:25;;;;;;;11.38;7.22;;;3.70;78.90;;;;;;6217166;23;20176;-84
2023/01/28 07:18:54;;;;;;;9.95;6.50;;;3.80;78.80;;;;;;6179277;23;20205;-84
2023/01/28 07:21:22;;;;;;;11.70;6.70;;;3.80;78.70;;;;;;6180856;23;20180;-84
2023/01/28 07:23:50;;;;;;;11.60;7.28;;;3.70;78.70;;;;;;6217966;23;20179;-84
2023/01/28 07:26:18;;;;;;;10.70;7.80;;;3.80;78.70;;;;;;6216757;23;20172;-84
2023/01/28 07:28:46;;;;;;;9.70;5.85;;;3.80;78.60;;;;;;6217422;23;20164;-84
2023/01/28 07:31:14;;;;;;;12.43;8.70;;;3.80;78.60;;;;;;6181874;23;20242;-84
2023/01/28 07:33:42;;;;;;;14.13;9.57;;;3.80;78.50;;;;;;6182045;23;20276;-85
2023/01/28 07:36:12;;;;;;;13.73;8.82;;;3.70;78.30;;;;;;6185406;23;20207;-85
2023/01/28 07:38:40;;;;;;;16.10;10.82;;;3.70;78.20;;;;;;6222391;23;20232;-84
2023/01/28 07:41:08;;;;;;;19.48;11.00;;;3.60;78.40;;;;;;6184888;23;20453;-82
2023/01/28 07:43:37;;;;;;;14.02;8.32;;;3.60;78.60;;;;;;6217269;23;20168;-84
2023/01/28 07:46:05;;;;;;;14.40;8.25;;;3.60;78.40;;;;;;6181694;23;20176;-84
2023/01/28 07:48:34;;;;;;;11.90;7.78;;;3.60;78.50;;;;;;6181781;23;20196;-84
2023/01/28 07:51:02;;;;;;;15.48;10.00;;;3.50;78.60;;;;;;6181327;23;20231;-83
2023/01/28 07:53:31;;;;;;;14.50;8.93;;;3.50;78.60;;;;;;6179589;23;20880;-84
2023/01/28 07:56:00;;;;;;;9.10;6.60;;;3.60;78.70;;;;;;6217109;23;20764;-84
2023/01/28 07:58:29;;;;;;;28.70;18.10;;;3.50;78.50;;;;;;6217627;23;20168;-82
2023/01/28 08:00:58;;;;;;;25.45;18.05;;;3.60;78.60;;;;;;6181259;23;20711;-84
2023/01/28 08:03:29;;;;;;;14.48;8.88;;;3.50;78.40;;;;;;6179368;23;20186;-83
2023/01/28 08:06:39;;;;;;;11.05;8.68;;;3.50;78.50;;;;;;6216816;23;20175;-84
2023/01/28 08:09:09;;;;;;;10.00;7.15;;;3.60;78.40;;;;;;6183103;22;20200;-81
2023/01/28 08:11:38;;;;;;;10.05;6.70;;;3.60;78.60;;;;;;6244636;23;20530;-81
2023/01/28 08:14:07;;;;;;;11.02;7.78;;;3.60;78.60;;;;;;6178226;23;20191;-81
2023/01/28 08:16:35;;;;;;;9.32;6.80;;;3.60;78.50;;;;;;6216058;23;20183;-81
2023/01/28 08:19:03;;;;;;;9.57;6.85;;;3.60;78.50;;;;;;6215405;23;20172;-80
2023/01/28 08:21:31;;;;;;;9.75;6.80;;;3.60;78.40;;;;;;6216900;23;20175;-81
2023/01/28 08:23:59;;;;;;;11.38;6.80;;;3.60;78.40;;;;;;6216464;23;20519;-80
2023/01/28 08:26:28;;;;;;;9.82;5.95;;;3.60;78.40;;;;;;6216707;23;20176;-80
2023/01/28 08:28:56;;;;;;;8.75;6.60;;;3.60;78.40;;;;;;6177806;23;20188;-80
2023/01/28 08:31:25;;;;;;;12.52;7.57;;;3.60;78.40;;;;;;6215464;23;20722;-80
2023/01/28 08:33:53;;;;;;;9.52;6.03;;;3.60;78.20;;;;;;6214397;23;20199;-81
2023/01/28 08:36:21;;;;;;;9.40;6.68;;;3.60;78.10;;;;;;6213551;23;20168;-81
2023/01/28 08:38:52;;;;;;;8.70;5.57;;;3.60;78.20;;;;;;6175857;23;20560;-80
2023/01/28 08:41:21;;;;;;;11.70;6.65;;;3.60;78.20;;;;;;6213228;23;20220;-81
2023/01/28 08:43:51;;;;;;;10.27;6.25;;;3.60;78.20;;;;;;6213240;23;20204;-81
2023/01/28 08:46:19;;;;;;;10.55;7.40;;;3.50;77.90;;;;;;6212394;23;20164;-80
2023/01/28 08:48:49;;;;;;;8.85;5.97;;;3.50;78.20;;;;;;6176942;23;20238;-80
2023/01/28 08:51:17;;;;;;;9.27;6.50;;;3.40;78.10;;;;;;6176730;23;20655;-83
2023/01/28 08:53:45;;;;;;;10.55;6.00;;;3.40;78.30;;;;;;6178325;23;20299;-81
2023/01/28 08:56:14;;;;;;;11.30;7.28;;;3.50;78.30;;;;;;6214433;23;20176;-81
2023/01/28 08:58:42;;;;;;;9.57;6.35;;;3.50;78.30;;;;;;6177355;23;20497;-80
2023/01/28 09:01:11;;;;;;;10.63;6.05;;;3.50;78.30;;;;;;6177267;23;20504;-81
2023/01/28 09:03:39;;;;;;;11.10;7.95;;;3.60;78.20;;;;;;6177422;23;20737;-83
2023/01/28 09:06:07;;;;;;;13.77;9.23;;;3.60;78.20;;;;;;6213866;23;20228;-80
2023/01/28 09:08:35;;;;;;;12.70;8.15;;;3.60;78.20;;;;;;6176870;23;20176;-80
2023/01/28 09:11:03;;;;;;;8.15;5.00;;;3.60;78.20;;;;;;6213717;23;20180;-80
2023/01/28 09:13:31;;;;;;;11.95;6.40;;;3.70;78.00;;;;;;6214416;23;20196;-80
2023/01/28 09:15:59;;;;;;;12.00;6.88;;;3.70;78.00;;;;;;6213155;23;20517;-82
2023/01/28 09:18:29;;;;;;;16.63;8.63;;;3.70;77.70;;;;;;6177389;23;20183;-83
2023/01/28 09:20:57;;;;;;;16.77;8.68;;;3.70;77.60;;;;;;6216352;23;20176;-77
2023/01/28 09:23:25;;;;;;;13.07;6.93;;;3.70;78.00;;;;;;6211709;23;20192;-79
2023/01/28 09:26:01;;;;;;;14.15;8.18;;;3.70;78.10;;;;;;6175953;23;20215;-79
2023/01/28 09:28:31;;;;;;;13.45;7.45;;;3.80;78.20;;;;;;6176374;23;20200;-80
2023/01/28 09:31:02;;;;;;;14.85;6.80;;;3.90;78.40;;;;;;6213138;23;20160;-80
2023/01/28 09:33:34;;;;;;;11.40;6.22;;;4.00;78.30;;;;;;6175729;23;20196;-79
2023/01/28 09:36:05;;;;;;;10.18;6.50;;;4.10;78.40;;;;;;6177794;23;20557;-80
2023/01/28 09:38:35;;;;;;;13.15;7.43;;;4.10;77.20;;;;;;6177142;23;20180;-80
2023/01/28 09:41:20;;;;;;;12.23;6.50;;;4.10;78.10;;;;;;6214092;23;20161;-79
2023/01/28 09:44:00;;;;;;;8.15;5.45;;;4.10;77.40;;;;;;6155426;23;20686;-80
2023/01/28 09:46:33;;;;;;;8.60;5.55;;;4.10;77.70;;;;;;6181484;23;20176;-80
2023/01/28 09:49:10;;;;;;;12.23;6.45;;;4.10;77.50;;;;;;6180082;23;20192;-80
2023/01/28 09:51:42;;;;;;;12.43;6.93;;;4.00;77.10;;;;;;6215257;23;20813;-80
2023/01/28 09:54:29;;;;;;;16.45;6.80;;;4.00;77.20;;;;;;6180902;23;20183;-80
2023/01/28 09:57:04;;;;;;;7.18;4.82;;;3.90;77.30;;;;;;6183192;23;20199;-80
2023/01/28 09:59:35;;;;;;;8.95;5.47;;;3.90;77.00;;;;;;6216080;23;20590;-81
2023/01/28 10:02:20;;;;;;;8.32;5.55;;;3.80;77.10;;;;;;6213240;23;20216;-82
2023/01/28 10:04:59;;;;;;;9.07;5.93;;;3.80;76.60;;;;;;6213345;23;20183;-79
2023/01/28 10:07:36;;;;;;;13.13;8.10;;;3.70;76.90;;;;;;6176632;23;20165;-80
2023/01/28 10:10:11;;;;;;;23.33;6.30;;;3.60;76.90;;;;;;6219416;22;20217;-80
2023/01/28 10:13:01;;;;;;;41.45;7.82;;;3.70;77.30;;;;;;6245503;23;20163;-81
2023/01/28 10:15:54;;;;;;;21.67;7.03;;;3.70;77.30;;;;;;6209372;23;20190;-81
2023/01/28 10:18:31;;;;;;;19.10;9.25;;;3.80;77.30;;;;;;6208236;23;20164;-81
2023/01/28 10:21:47;;;;;;;9.75;6.63;;;3.90;77.60;;;;;;6181506;23;20195;-82
2023/01/28 10:35:46;;;;;;;423.55;68.72;;;4.10;76.90;;;;;;6203266;23;20180;-84
2023/01/28 10:38:19;;;;;;;42.22;10.15;;;4.10;76.80;;;;;;6177209;23;20261;-83
2023/01/28 10:40:48;;;;;;;15.02;6.28;;;4.10;76.70;;;;;;6216759;23;20268;-84
2023/01/28 10:43:19;;;;;;;57.35;13.15;;;4.10;76.50;;;;;;6216784;23;20180;-82
2023/01/28 10:45:57;;;;;;;17.45;7.05;;;4.10;76.50;;;;;;6215773;23;20165;-80
2023/01/28 10:48:33;;;;;;;31.27;13.50;;;4.10;76.50;;;;;;6179245;23;20184;-82
2023/01/28 10:51:04;;;;;;;41.55;15.38;;;4.00;76.10;;;;;;6179369;23;20196;-83
2023/01/28 10:53:37;;;;;;;43.47;16.33;;;3.90;76.40;;;;;;6218174;23;20922;-83
2023/01/28 10:56:09;;;;;;;30.42;11.05;;;3.80;76.10;;;;;;6184357;23;20187;-83
2023/01/28 10:58:50;;;;;;;40.40;14.80;;;3.80;76.20;;;;;;6215442;23;20187;-83
2023/01/28 11:01:18;;;;;;;28.30;10.15;;;3.80;75.80;;;;;;6215267;23;20160;-83
2023/01/28 11:03:57;;;;;;;57.72;18.98;;;3.80;76.10;;;;;;6177350;23;20266;-83
2023/01/28 11:06:28;;;;;;;24.05;10.70;;;3.70;76.20;;;;;;6214410;23;20667;-83
2023/01/28 11:08:56;;;;;;;28.00;10.38;;;3.70;75.70;;;;;;6214103;23;20176;-83
2023/01/28 11:11:29;;;;;;;33.10;11.23;;;3.70;76.10;;;;;;6175861;23;20637;-82
2023/01/28 11:14:21;;;;;;;11.88;6.75;;;3.60;75.70;;;;;;6180244;23;20172;-82
2023/01/28 11:16:52;;;;;;;15.25;10.85;;;3.60;76.00;;;;;;6176621;23;20901;-82
2023/01/28 11:19:32;;;;;;;12.52;8.70;;;3.60;76.10;;;;;;6165101;23;20455;-82
2023/01/28 11:22:40;;;;;;;12.32;6.15;;;3.60;76.10;;;;;;6160029;23;20194;-82
2023/01/28 11:25:18;;;;;;;11.05;7.07;;;3.70;76.20;;;;;;6188450;23;20161;-82
2023/01/28 11:27:51;;;;;;;9.05;6.53;;;3.70;75.90;;;;;;6176041;23;20207;-82
2023/01/28 11:30:25;;;;;;;12.38;8.02;;;3.60;75.70;;;;;;6204237;23;20212;-82
2023/01/28 11:33:00;;;;;;;11.57;7.55;;;3.70;76.00;;;;;;6175505;23;20260;-83
2023/01/28 11:35:31;;;;;;;16.55;8.35;;;3.70;75.80;;;;;;6177565;23;20180;-82
2023/01/28 11:38:00;;;;;;;17.38;9.25;;;3.60;75.70;;;;;;6213216;23;20160;-82
2023/01/28 11:40:29;;;;;;;18.40;8.60;;;3.60;75.30;;;;;;6176555;23;20287;-81
2023/01/28 11:42:58;;;;;;;18.23;9.35;;;3.60;75.80;;;;;;6214643;23;20729;-81
2023/01/28 11:45:38;;;;;;;21.13;9.02;;;3.60;75.80;;;;;;6215759;23;20251;-81
2023/01/28 11:48:29;;;;;;;18.15;7.70;;;3.70;75.90;;;;;;6177607;23;20190;-83
2023/01/28 11:51:13;;;;;;;12.60;7.68;;;3.70;75.70;;;;;;6174589;23;20204;-82
2023/01/28 11:54:09;;;;;;;9.40;7.05;;;3.60;75.40;;;;;;6176741;23;20182;-82
2023/01/28 11:56:53;;;;;;;18.65;9.57;;;3.60;75.40;;;;;;6176626;23;20165;-82
2023/01/28 11:59:59;;;;;;;11.95;6.90;;;3.60;75.30;;;;;;6177857;23;20247;-81
2023/01/28 12:02:48;;;;;;;17.90;9.82;;;3.50;75.40;;;;;;6173287;23;20507;-82
2023/01/28 12:05:40;;;;;;;15.07;8.43;;;3.50;75.50;;;;;;6177849;23;20230;-81
2023/01/28 12:08:18;;;;;;;19.08;9.98;;;3.60;75.60;;;;;;6214597;23;20156;-82
2023/01/28 12:10:58;;;;;;;15.68;8.35;;;3.60;75.30;;;;;;6213298;23;20208;-82
2023/01/28 12:13:39;;;;;;;7.70;5.80;;;3.60;75.30;;;;;;6214879;23;20827;-82
2023/01/28 12:16:25;;;;;;;11.27;7.10;;;3.60;75.40;;;;;;6214875;23;20199;-82
2023/01/28 12:19:14;;;;;;;17.35;8.30;;;3.60;75.20;;;;;;6214470;23;20226;-82
2023/01/28 12:21:54;;;;;;;11.60;7.70;;;3.60;74.60;;;;;;6177333;23;20534;-85
2023/01/28 12:24:42;;;;;;;16.92;11.05;;;3.50;74.90;;;;;;6213599;23;20164;-81
2023/01/28 12:27:26;;;;;;;16.02;8.60;;;3.50;75.20;;;;;;6215648;23;20169;-83
2023/01/28 12:30:03;;;;;;;12.23;8.05;;;3.50;75.20;;;;;;6162542;23;20210;-83
2023/01/28 12:32:46;;;;;;;12.77;8.05;;;3.50;75.10;;;;;;6185245;23;20156;-85
2023/01/28 12:35:55;;;;;;;16.77;10.35;;;3.50;75.10;;;;;;6103978;23;20915;-83
2023/01/28 12:38:32;;;;;;;9.85;6.40;;;3.50;74.60;;;;;;6165514;23;20219;-85
2023/01/28 12:41:07;;;;;;;12.30;7.85;;;3.40;75.10;;;;;;6181798;23;20211;-84
2023/01/28 12:43:56;;;;;;;14.10;8.15;;;3.50;75.10;;;;;;6171214;23;20172;-84
2023/01/28 12:46:37;;;;;;;12.25;7.88;;;3.50;74.90;;;;;;6170558;23;20180;-84
2023/01/28 12:49:13;;;;;;;12.60;7.50;;;3.50;74.80;;;;;;6163862;23;20214;-81
2023/01/28 12:51:51;;;;;;;12.82;7.57;;;3.40;74.90;;;;;;6089548;23;20941;-84
2023/01/28 12:54:24;;;;;;;17.65;9.80;;;3.50;75.00;;;;;;6181927;23;20824;-85
2023/01/28 12:56:56;;;;;;;12.68;8.05;;;3.50;74.80;;;;;;6169234;23;20177;-83
2023/01/28 12:59:38;;;;;;;15.80;7.60;;;3.40;74.00;;;;;;6195979;23;20595;-83
2023/01/28 13:02:21;;;;;;;19.65;10.10;;;3.40;74.60;;;;;;6182185;23;20165;-84
2023/01/28 13:04:56;;;;;;;19.92;10.13;;;3.40;74.70;;;;;;6169757;23;20256;-84
2023/01/28 13:07:27;;;;;;;16.73;8.98;;;3.50;75.00;;;;;;6171132;23;20164;-83
2023/01/28 13:10:05;;;;;;;11.45;6.70;;;3.60;74.90;;;;;;6184208;23;20279;-83
2023/01/28 13:12:38;;;;;;;21.48;10.40;;;3.70;74.90;;;;;;6180396;23;20204;-84
2023/01/28 13:15:13;;;;;;;17.20;8.50;;;3.80;74.90;;;;;;6184539;23;20163;-84
2023/01/28 13:17:54;;;;;;;10.48;7.10;;;3.70;74.00;;;;;;6184425;23;20244;-84
2023/01/28 13:20:38;;;;;;;10.13;6.65;;;3.60;73.80;;;;;;6174048;23;20219;-83
2023/01/28 13:23:22;;;;;;;13.93;8.30;;;3.50;73.90;;;;;;6174203;23;20188;-84
2023/01/28 13:25:53;;;;;;;16.10;9.68;;;3.40;74.00;;;;;;6184769;23;20165;-83
2023/01/28 13:28:29;;;;;;;12.70;8.05;;;3.40;74.20;;;;;;6186062;23;20176;-83
2023/01/28 13:31:03;;;;;;;11.27;5.60;;;3.30;74.20;;;;;;6190473;23;20604;-83
2023/01/28 13:33:36;;;;;;;8.95;5.93;;;3.40;74.30;;;;;;6182794;23;20172;-84
2023/01/28 13:36:18;;;;;;;13.93;7.20;;;3.30;73.60;;;;;;6195515;23;20219;-84
2023/01/28 13:38:46;;;;;;;12.73;7.85;;;3.20;73.40;;;;;;6191603;23;20685;-84
2023/01/28 13:41:14;;;;;;;18.40;8.55;;;3.20;73.90;;;;;;6187739;23;20343;-84
2023/01/28 13:43:43;;;;;;;9.40;6.45;;;3.10;73.40;;;;;;6189186;23;20169;-83
2023/01/28 13:46:25;;;;;;;7.57;5.40;;;3.10;74.00;;;;;;6188916;23;20359;-84
2023/01/28 13:48:57;;;;;;;9.85;5.55;;;3.20;74.30;;;;;;6174206;23;20168;-84
2023/01/28 13:51:29;;;;;;;8.70;6.70;;;3.30;74.50;;;;;;6183654;23;20184;-84
2023/01/28 13:54:02;;;;;;;8.68;6.75;;;3.40;74.30;;;;;;6174136;23;20367;-84
2023/01/28 13:56:37;;;;;;;8.73;6.32;;;3.40;73.20;;;;;;6185441;23;20158;-83
2023/01/28 13:59:37;;;;;;;7.65;5.85;;;3.30;73.30;;;;;;6172318;23;20268;-83
2023/01/28 14:02:38;;;;;;;8.35;5.45;;;3.20;73.60;;;;;;6172017;23;20185;-84
2023/01/28 14:06:01;;;;;;;7.18;5.15;;;3.20;73.60;;;;;;6183421;23;20263;-83
2023/01/28 14:09:03;;;;;;;10.90;6.80;;;3.20;73.50;;;;;;6169379;23;20275;-82
2023/01/28 14:12:03;;;;;;;8.02;6.50;;;3.20;73.40;;;;;;6172194;23;20259;-84